メインページ
METAR-TAF:

METAR-TAF

空港 :

キャンベルリバー, ブリティッシュコロンビア州, カナダ

緯度: 49-57N, 経度: 125-16W, 海抜: 106m

現時点の気象観測

当レポートは24分前の18:00(UTC)に作成
南/南東の風 3kt、南東から南西の間で変化する
気温 10°C
湿度 100%
気圧 1015 hPa
視程: 1.6km
高度300ftの曇り

METAR: CYBL 171800Z 16003KT 130V220 1SM R12/P6000FT/N BR OVC003 10/10 A2998 RMK ST8 CIG VRB 2-4 SLP156

時間: 10:24 (18:24 UTC)

予報

当レポートは22分前の18:02(UTC)に作成
予報は17日の 18時(UTC)から 18日の 04時(UTC)まで有効
東/南東の風 5kt
視程: 1.6km
高度300ftの曇り
17日の 18時(UTC)から 17日の 21時(UTC)まで一時的に
視程: 9.7km
高度600ftの曇り
17日の 2100時(UTC)から
変向風 3kt
視程: 10km
高度600ftの曇り
17日の 21時(UTC)から 18日の 02時(UTC)まで一時的に
高度1000ftの千切れ雲あり
高度3000ftの曇り
18日の 0200時(UTC)から
変向風 3kt
視程: 10km
高度3000ftの千切れ雲あり
18日の 02時(UTC)から 18日の 04時(UTC)まで一時的に
高度1000ftの雲はほとんどない
高度2000ftの千切れ雲あり

TAF: CYBL 171802Z 1718/1804 12005KT 1SM BR OVC003 TEMPO 1718/1721 6SM BR OVC006 FM172100 VRB03KT P6SM OVC006 TEMPO 1721/1802 BKN010 OVC030 FM180200 VRB03KT P6SM BKN030 TEMPO 1802/1804 FEW010 BKN020 RMK NXT FCST BY 171900Z

4,000以上の空港の気象観測と天気予報(METAR報とTAF報)

利用可能な観測所は地図上に黄色い丸と赤い丸で示す。

丸の上にカーソルを重ねると観測所名を参照できる。

次にクリックすると気象観測と天気予報を参照できる。

マップの切り替え:黒色「×」印の緑ボタンをクリックして拡大、「-」印の緑ボタンをクリックして縮小、緑色の三角印をクリックして隣りの地図に切り替え


METAR-TAF: